createdAt,value
2023-01-21T00:00:26.081Z,100253.13
2023-01-21T00:02:57.555Z,100243.95
2023-01-21T00:05:29.983Z,100250.66
2023-01-21T00:08:02.734Z,100261.73
2023-01-21T00:10:34.683Z,100258.69
2023-01-21T00:13:06.230Z,100255.79
2023-01-21T00:15:38.663Z,100255.17
2023-01-21T00:18:10.965Z,100263.27
2023-01-21T00:20:43.759Z,100257.43
2023-01-21T00:23:15.330Z,100256.02
2023-01-21T00:25:46.872Z,100251.39
2023-01-21T00:28:19.163Z,100255.04
2023-01-21T00:30:52.420Z,100254.95
2023-01-21T00:33:24.206Z,100261.52
2023-01-21T00:36:05.075Z,100262.70
2023-01-21T00:38:37.313Z,100261.63
2023-01-21T00:41:12.931Z,100263.88
2023-01-21T00:43:45.382Z,100257.12
2023-01-21T00:46:17.185Z,100259.63
2023-01-21T00:48:49.861Z,100264.33
2023-01-21T00:51:21.224Z,100264.50
2023-01-21T00:53:52.680Z,100252.83
2023-01-21T00:56:24.009Z,100247.33
2023-01-21T00:58:55.820Z,100237.00
2023-01-21T01:01:30.607Z,100228.44
2023-01-21T01:04:02.521Z,100226.17
2023-01-21T01:06:34.806Z,100221.86
2023-01-21T01:09:06.252Z,100225.45
2023-01-21T01:11:37.720Z,100219.92
2023-01-21T01:14:09.159Z,100215.66
2023-01-21T01:16:40.776Z,100207.63
2023-01-21T01:19:12.944Z,100209.93
2023-01-21T01:21:44.694Z,100205.87
2023-01-21T01:24:16.201Z,100210.29
2023-01-21T01:26:47.672Z,100214.70
2023-01-21T01:29:19.889Z,100216.44
2023-01-21T01:31:51.286Z,100215.12
2023-01-21T01:34:22.918Z,100205.24
2023-01-21T01:36:54.468Z,100200.76
2023-01-21T01:39:26.841Z,100194.67
2023-01-21T01:41:58.229Z,100180.77
2023-01-21T01:45:00.683Z,100180.56
2023-01-21T01:47:37.511Z,100184.17
2023-01-21T01:50:13.519Z,100187.90
2023-01-21T01:52:46.419Z,100174.31
2023-01-21T01:55:17.803Z,100182.42
2023-01-21T01:57:53.555Z,100182.38
2023-01-21T02:00:28.360Z,100176.32
2023-01-21T02:03:15.602Z,100175.88
2023-01-21T02:05:48.310Z,100180.98
2023-01-21T02:08:21.886Z,100173.55
2023-01-21T02:10:56.329Z,100161.07
2023-01-21T02:13:32.073Z,100159.52
2023-01-21T02:16:19.193Z,100153.62
2023-01-21T02:18:58.677Z,100162.98
2023-01-21T02:22:00.115Z,100163.31
2023-01-21T02:25:04.532Z,100167.60
2023-01-21T02:27:51.149Z,100160.73
2023-01-21T02:30:48.144Z,100156.45
2023-01-21T02:33:39.248Z,100150.46
2023-01-21T02:36:27.123Z,100146.55
2023-01-21T02:39:05.095Z,100144.27
2023-01-21T02:41:51.665Z,100142.16
2023-01-21T02:44:33.848Z,100144.23
2023-01-21T02:47:12.279Z,100142.23
2023-01-21T02:49:48.129Z,100138.45
2023-01-21T02:52:23.693Z,100138.99
2023-01-21T02:54:58.459Z,100133.20
2023-01-21T02:57:41.347Z,100125.36
2023-01-21T03:00:18.623Z,100123.36
2023-01-21T03:03:26.911Z,100122.73
2023-01-21T03:06:30.765Z,100121.49
2023-01-21T03:09:16.126Z,100113.81
2023-01-21T03:11:58.030Z,100115.34
2023-01-21T03:14:53.548Z,100102.23
2023-01-21T03:17:31.445Z,100102.61
2023-01-21T03:20:11.850Z,100098.46
2023-01-21T03:22:44.702Z,100093.48
2023-01-21T03:25:17.748Z,100088.07
2023-01-21T03:27:51.091Z,100086.73
2023-01-21T03:30:29.639Z,100085.05
2023-01-21T03:33:03.170Z,100084.13
2023-01-21T03:35:40.413Z,100087.13
2023-01-21T03:38:18.285Z,100087.45
2023-01-21T03:40:57.200Z,100086.96
2023-01-21T03:43:29.237Z,100086.66
2023-01-21T03:46:06.392Z,100081.49
2023-01-21T03:48:43.765Z,100081.35
2023-01-21T03:51:21.265Z,100077.05
2023-01-21T03:54:00.631Z,100071.43
2023-01-21T03:56:33.999Z,100063.08
2023-01-21T03:59:06.734Z,100065.67
2023-01-21T04:01:42.007Z,100066.52
2023-01-21T04:04:15.316Z,100058.27
2023-01-21T04:06:47.675Z,100048.68
2023-01-21T04:09:20.593Z,100045.71
2023-01-21T04:11:53.475Z,100036.15
2023-01-21T04:14:25.132Z,100030.77
2023-01-21T04:16:57.968Z,100025.79
2023-01-21T04:19:30.151Z,100018.43
2023-01-21T04:22:02.185Z,100017.25
2023-01-21T04:24:34.809Z,100014.16
2023-01-21T04:27:07.691Z,100025.98
2023-01-21T04:29:39.746Z,100030.55
2023-01-21T04:32:11.782Z,100035.36
2023-01-21T04:42:26.461Z,100030.30
2023-01-21T04:44:59.398Z,100039.39
2023-01-21T04:47:31.371Z,100048.84
2023-01-21T04:50:05.030Z,100054.17
2023-01-21T04:52:38.396Z,100051.95
2023-01-21T04:55:15.986Z,100052.48
2023-01-21T04:57:47.690Z,100047.23
2023-01-21T05:00:21.576Z,100040.79
2023-01-21T05:02:55.009Z,100037.75
2023-01-21T05:05:27.270Z,100043.41
2023-01-21T05:07:58.938Z,100049.02
2023-01-21T05:10:32.087Z,100046.06
2023-01-21T05:13:03.585Z,100045.63
2023-01-21T05:15:35.516Z,100043.80
2023-01-21T05:18:07.308Z,100041.33
2023-01-21T05:20:39.223Z,100044.31
2023-01-21T05:23:10.813Z,100045.30
2023-01-21T05:25:46.645Z,100044.72
2023-01-21T05:28:23.604Z,100036.86
2023-01-21T05:31:03.056Z,100038.98
2023-01-21T05:33:36.445Z,100037.06
2023-01-21T05:36:10.832Z,100044.17
2023-01-21T05:38:42.438Z,100045.55
2023-01-21T05:41:14.351Z,100039.70
2023-01-21T05:43:46.185Z,100041.85
2023-01-21T05:46:27.708Z,100043.30
2023-01-21T05:48:59.911Z,100038.48
2023-01-21T05:51:39.394Z,100031.67
2023-01-21T05:54:11.966Z,100038.30
2023-01-21T05:56:43.831Z,100043.89
2023-01-21T05:59:15.679Z,100042.84
2023-01-21T06:01:47.959Z,100046.00
2023-01-21T06:04:33.284Z,100046.65
2023-01-21T06:07:07.767Z,100041.34
2023-01-21T06:09:41.353Z,100036.89
2023-01-21T06:12:13.221Z,100034.83
2023-01-21T06:14:45.153Z,100038.17
2023-01-21T06:17:17.131Z,100035.95
2023-01-21T06:19:49.798Z,100037.48
2023-01-21T06:22:22.077Z,100028.82
2023-01-21T06:24:59.386Z,100031.30
2023-01-21T06:27:31.607Z,100029.09
2023-01-21T06:30:17.773Z,100031.70
2023-01-21T06:32:49.811Z,100033.04
2023-01-21T06:35:23.844Z,100036.20
2023-01-21T06:37:55.615Z,100027.64
2023-01-21T06:40:27.714Z,100033.55
2023-01-21T06:43:02.198Z,100027.95
2023-01-21T06:45:35.114Z,100040.55
2023-01-21T06:48:15.124Z,100033.92
2023-01-21T06:50:48.450Z,100025.17
2023-01-21T06:53:22.135Z,100032.31
2023-01-21T06:55:54.334Z,100035.77
2023-01-21T06:58:26.138Z,100033.28
2023-01-21T07:01:00.433Z,100032.29
2023-01-21T07:03:34.149Z,100034.45
2023-01-21T07:06:06.136Z,100037.75
2023-01-21T07:08:39.107Z,100039.80
2023-01-21T07:11:11.037Z,100040.52
2023-01-21T07:13:42.852Z,100041.67
2023-01-21T07:16:14.776Z,100049.42
2023-01-21T07:18:46.399Z,100049.13
2023-01-21T07:21:21.475Z,100049.42
2023-01-21T07:23:55.736Z,100047.83
2023-01-21T07:26:27.382Z,100050.73
2023-01-21T07:29:01.825Z,100047.55
2023-01-21T07:31:34.071Z,100043.36
2023-01-21T07:34:06.841Z,100043.19
2023-01-21T07:36:38.447Z,100045.72
2023-01-21T07:39:10.872Z,100034.92
2023-01-21T07:41:46.394Z,100029.02
2023-01-21T07:44:21.211Z,100030.23
2023-01-21T07:46:51.357Z,100038.64
2023-01-21T07:49:26.403Z,100032.55
2023-01-21T07:52:00.759Z,100030.49
2023-01-21T07:54:32.473Z,100033.27
2023-01-21T07:57:05.451Z,100036.67
2023-01-21T07:59:37.086Z,100031.77
2023-01-21T08:02:08.852Z,100039.39
2023-01-21T08:04:41.809Z,100032.42
2023-01-21T08:07:13.441Z,100030.83
2023-01-21T08:09:45.332Z,100029.82
2023-01-21T08:12:17.062Z,100030.29
2023-01-21T08:14:48.668Z,100032.29
2023-01-21T08:17:20.280Z,100025.84
2023-01-21T08:19:52.125Z,100033.48
2023-01-21T08:22:28.814Z,100033.61
2023-01-21T08:25:07.321Z,100026.60
2023-01-21T08:27:45.515Z,100025.70
2023-01-21T08:30:21.625Z,100021.65
2023-01-21T08:32:58.909Z,100031.67
2023-01-21T08:35:37.408Z,100034.15
2023-01-21T08:38:10.971Z,100039.38
2023-01-21T08:40:46.686Z,100032.98
2023-01-21T08:43:31.339Z,100040.58
2023-01-21T08:46:03.425Z,100039.16
2023-01-21T08:48:39.226Z,100040.26
2023-01-21T08:51:11.680Z,100042.70
2023-01-21T08:53:43.805Z,100043.86
2023-01-21T08:56:15.578Z,100048.50
2023-01-21T08:58:47.490Z,100045.95
2023-01-21T09:01:19.685Z,100048.45
2023-01-21T09:03:55.429Z,100053.13
2023-01-21T09:06:29.618Z,100052.59
2023-01-21T09:09:02.207Z,100048.48
2023-01-21T09:11:35.006Z,100049.74
2023-01-21T09:14:07.369Z,100045.98
2023-01-21T09:16:41.652Z,100053.69
2023-01-21T09:19:17.691Z,100047.17
2023-01-21T09:21:49.560Z,100051.27
2023-01-21T09:24:21.334Z,100056.27
2023-01-21T09:26:53.097Z,100054.90
2023-01-21T09:29:25.567Z,100051.10
2023-01-21T09:32:01.225Z,100049.52
2023-01-21T09:34:36.032Z,100053.65
2023-01-21T09:37:10.402Z,100052.88
2023-01-21T09:39:42.851Z,100053.64
2023-01-21T09:42:22.703Z,100055.95
2023-01-21T09:44:57.650Z,100055.55
2023-01-21T09:47:33.875Z,100053.86
2023-01-21T09:50:09.971Z,100052.52
2023-01-21T09:52:44.003Z,100056.11
2023-01-21T09:55:20.492Z,100056.20
2023-01-21T09:58:16.782Z,100055.96
2023-01-21T10:00:53.135Z,100057.24
2023-01-21T10:03:31.213Z,100059.23
2023-01-21T10:06:29.017Z,100060.09
2023-01-21T10:09:25.768Z,100061.63
2023-01-21T10:12:20.498Z,100062.66
2023-01-21T10:15:18.629Z,100058.42
2023-01-21T10:17:59.245Z,100057.65
2023-01-21T10:20:36.278Z,100063.82
2023-01-21T10:23:16.558Z,100066.48
2023-01-21T10:25:51.064Z,100063.23
2023-01-21T10:28:26.558Z,100066.80
2023-01-21T10:31:03.370Z,100063.13
2023-01-21T10:33:36.820Z,100067.24
2023-01-21T10:36:26.078Z,100072.82
2023-01-21T10:39:10.367Z,100069.08
2023-01-21T10:41:58.042Z,100073.34
2023-01-21T10:44:40.754Z,100074.00
2023-01-21T10:47:21.255Z,100070.64
2023-01-21T10:50:04.587Z,100076.34
2023-01-21T10:52:45.579Z,100082.65
2023-01-21T10:55:37.141Z,100081.37
2023-01-21T10:58:17.196Z,100087.33
2023-01-21T11:00:51.636Z,100086.61
2023-01-21T11:03:35.164Z,100091.69
2023-01-21T11:06:11.204Z,100092.55
2023-01-21T11:08:46.179Z,100084.23
2023-01-21T11:11:22.197Z,100096.78
2023-01-21T11:13:53.965Z,100094.73
2023-01-21T11:16:48.111Z,100099.91
2023-01-21T11:19:26.322Z,100095.52
2023-01-21T11:22:06.553Z,100099.66
2023-01-21T11:24:47.983Z,100099.33
2023-01-21T11:27:25.588Z,100097.59
2023-01-21T11:29:57.782Z,100104.03
2023-01-21T11:32:31.599Z,100100.92
2023-01-21T11:35:11.623Z,100102.03
2023-01-21T11:37:46.559Z,100103.58
2023-01-21T11:40:28.785Z,100103.27
2023-01-21T11:43:01.038Z,100107.19
2023-01-21T11:45:36.537Z,100105.43
2023-01-21T11:48:21.503Z,100109.47
2023-01-21T11:51:07.360Z,100112.47
2023-01-21T11:53:39.678Z,100117.34
2023-01-21T11:56:16.599Z,100119.05
2023-01-21T11:58:55.688Z,100119.67
2023-01-21T12:01:27.691Z,100122.19
2023-01-21T12:04:03.775Z,100127.59
2023-01-21T12:06:38.010Z,100125.56
2023-01-21T12:09:19.456Z,100127.48
2023-01-21T12:12:15.350Z,100128.28
2023-01-21T12:14:55.175Z,100129.33
2023-01-21T12:17:46.080Z,100131.94
2023-01-21T12:20:32.429Z,100137.66
2023-01-21T12:23:19.610Z,100141.61
2023-01-21T12:25:59.286Z,100148.20
2023-01-21T12:28:52.282Z,100147.27
2023-01-21T12:31:30.245Z,100149.31
2023-01-21T12:34:12.105Z,100152.36
2023-01-21T12:36:49.968Z,100157.52
2023-01-21T12:39:26.916Z,100154.83
2023-01-21T12:42:08.183Z,100159.20
2023-01-21T12:44:45.733Z,100154.98
2023-01-21T12:47:26.789Z,100168.27
2023-01-21T12:50:07.883Z,100163.59
2023-01-21T12:52:46.924Z,100164.91
2023-01-21T12:55:24.554Z,100174.23
2023-01-21T12:58:04.142Z,100173.31
2023-01-21T13:00:39.804Z,100174.73
2023-01-21T13:03:26.075Z,100179.13
2023-01-21T13:06:04.770Z,100182.29
2023-01-21T13:09:02.152Z,100186.77
2023-01-21T13:11:38.675Z,100193.60
2023-01-21T13:14:28.765Z,100199.43
2023-01-21T13:17:04.194Z,100206.66
2023-01-21T13:19:35.961Z,100206.01
2023-01-21T13:22:12.234Z,100204.79
2023-01-21T13:25:05.047Z,100213.35
2023-01-21T13:27:44.838Z,100215.80
2023-01-21T13:30:26.638Z,100218.07
2023-01-21T13:33:09.105Z,100220.03
2023-01-21T13:35:52.241Z,100223.56
2023-01-21T13:38:33.403Z,100230.09
2023-01-21T13:41:14.591Z,100232.63
2023-01-21T13:44:09.583Z,100233.30
2023-01-21T13:47:01.143Z,100243.80
2023-01-21T13:50:18.272Z,100248.05
2023-01-21T13:53:06.982Z,100251.54
2023-01-21T13:55:56.469Z,100257.21
2023-01-21T13:58:38.054Z,100258.54
2023-01-21T14:01:17.103Z,100265.51
2023-01-21T14:03:58.208Z,100275.34
2023-01-21T14:06:37.207Z,100274.39
2023-01-21T14:09:16.231Z,100278.13
2023-01-21T14:11:54.152Z,100279.97
2023-01-21T14:14:50.403Z,100284.57
2023-01-21T14:18:06.587Z,100288.49
2023-01-21T14:20:59.077Z,100294.38
2023-01-21T14:23:57.223Z,100294.58
2023-01-21T14:26:51.786Z,100297.77
2023-01-21T14:29:35.486Z,100304.13
2023-01-21T14:32:14.851Z,100303.65
2023-01-21T14:34:57.487Z,100311.20
2023-01-21T14:37:34.733Z,100320.75
2023-01-21T14:40:17.321Z,100322.61
2023-01-21T14:42:50.769Z,100328.83
2023-01-21T14:45:26.234Z,100336.21
2023-01-21T14:47:59.467Z,100336.30
2023-01-21T14:50:56.200Z,100340.89
2023-01-21T14:53:30.026Z,100346.52
2023-01-21T14:56:19.167Z,100352.67
2023-01-21T14:58:53.450Z,100361.38
2023-01-21T15:01:36.550Z,100366.02
2023-01-21T15:04:25.571Z,100369.23
2023-01-21T15:07:00.472Z,100377.27
2023-01-21T15:09:32.930Z,100381.81
2023-01-21T15:12:07.989Z,100390.86
2023-01-21T15:14:41.774Z,100395.17
2023-01-21T15:18:07.721Z,100398.26
2023-01-21T15:20:52.459Z,100405.81
2023-01-21T15:23:38.899Z,100407.70
2023-01-21T15:26:34.084Z,100412.14
2023-01-21T15:29:38.944Z,100419.17
2023-01-21T15:32:28.999Z,100422.55
2023-01-21T15:35:02.886Z,100429.00
2023-01-21T15:37:39.286Z,100426.48
2023-01-21T15:40:19.925Z,100428.44
2023-01-21T15:43:02.497Z,100430.14
2023-01-21T15:45:47.317Z,100436.17
2023-01-21T15:48:42.118Z,100434.53
2023-01-21T15:51:25.761Z,100440.66
2023-01-21T15:54:11.268Z,100447.75
2023-01-21T15:56:57.537Z,100453.52
2023-01-21T15:59:57.425Z,100462.35
2023-01-21T16:02:33.863Z,100467.42
2023-01-21T16:05:21.282Z,100470.98
2023-01-21T16:08:04.741Z,100475.02
2023-01-21T16:10:43.986Z,100481.67
2023-01-21T16:13:24.489Z,100480.17
2023-01-21T16:16:10.449Z,100490.23
2023-01-21T16:18:55.280Z,100491.60
2023-01-21T16:21:32.026Z,100491.86
2023-01-21T16:24:09.393Z,100494.02
2023-01-21T16:26:41.127Z,100498.86
2023-01-21T16:29:16.751Z,100504.98
2023-01-21T16:31:59.839Z,100507.91
2023-01-21T16:34:46.762Z,100512.39
2023-01-21T16:37:20.763Z,100509.96
2023-01-21T16:39:58.689Z,100516.66
2023-01-21T16:42:37.159Z,100526.64
2023-01-21T16:45:20.680Z,100529.16
2023-01-21T16:47:59.403Z,100530.46
2023-01-21T16:50:34.821Z,100537.59
2023-01-21T16:53:19.443Z,100546.30
2023-01-21T16:55:53.536Z,100549.91
2023-01-21T16:58:29.864Z,100555.90
2023-01-21T17:01:11.707Z,100558.29
2023-01-21T17:03:45.573Z,100563.46
2023-01-21T17:06:23.831Z,100567.27
2023-01-21T17:09:00.436Z,100575.59
2023-01-21T17:11:32.786Z,100578.83
2023-01-21T17:14:11.177Z,100583.29
2023-01-21T17:16:46.518Z,100583.41
2023-01-21T17:19:26.003Z,100589.20
2023-01-21T17:22:02.115Z,100586.89
2023-01-21T17:24:39.333Z,100594.97
2023-01-21T17:27:18.751Z,100596.44
2023-01-21T17:29:54.623Z,100599.98
2023-01-21T17:32:35.161Z,100605.88
2023-01-21T17:35:22.747Z,100610.10
2023-01-21T17:38:01.154Z,100618.47
2023-01-21T17:40:36.996Z,100625.36
2023-01-21T17:43:22.748Z,100631.00
2023-01-21T17:45:59.055Z,100635.60
2023-01-21T17:48:36.249Z,100636.08
2023-01-21T17:51:19.028Z,100638.34
2023-01-21T17:54:00.237Z,100641.92
2023-01-21T17:56:50.504Z,100643.98
2023-01-21T17:59:39.302Z,100651.81
2023-01-21T18:02:15.797Z,100658.11
2023-01-21T18:04:52.098Z,100665.31
2023-01-21T18:07:28.580Z,100671.50
2023-01-21T18:10:04.175Z,100674.80
2023-01-21T18:12:40.068Z,100678.48
2023-01-21T18:15:19.898Z,100683.64
2023-01-21T18:17:55.220Z,100694.35
2023-01-21T18:20:30.461Z,100697.77
2023-01-21T18:23:02.447Z,100701.52
2023-01-21T18:25:35.763Z,100708.31
2023-01-21T18:28:18.540Z,100716.06
2023-01-21T18:30:52.134Z,100719.52
2023-01-21T18:33:30.676Z,100728.27
2023-01-21T18:36:05.021Z,100726.88
2023-01-21T18:38:38.827Z,100726.90
2023-01-21T18:41:14.108Z,100730.49
2023-01-21T18:43:48.416Z,100731.30
2023-01-21T18:46:24.877Z,100732.16
2023-01-21T18:48:57.724Z,100736.73
2023-01-21T18:51:33.190Z,100740.86
2023-01-21T18:54:08.151Z,100742.06
2023-01-21T18:56:43.909Z,100741.46
2023-01-21T18:59:18.509Z,100748.55
2023-01-21T19:01:52.212Z,100750.98
2023-01-21T19:04:25.617Z,100755.02
2023-01-21T19:07:02.038Z,100758.38
2023-01-21T19:09:41.373Z,100759.19
2023-01-21T19:12:17.409Z,100763.14
2023-01-21T19:14:51.115Z,100767.66
2023-01-21T19:17:31.577Z,100768.55
2023-01-21T19:20:06.567Z,100772.21
2023-01-21T19:22:42.347Z,100775.39
2023-01-21T19:25:20.607Z,100779.08
2023-01-21T19:27:55.188Z,100785.20
2023-01-21T19:30:30.755Z,100787.08
2023-01-21T19:33:04.418Z,100791.86
2023-01-21T19:35:41.548Z,100797.39
2023-01-21T19:38:25.021Z,100804.81
2023-01-21T19:40:58.992Z,100809.11
2023-01-21T19:43:33.292Z,100814.48
2023-01-21T19:46:09.455Z,100817.40
2023-01-21T19:48:43.127Z,100819.25
2023-01-21T19:51:22.863Z,100821.10
2023-01-21T19:53:55.321Z,100825.95
2023-01-21T19:56:29.094Z,100827.62
2023-01-21T19:59:03.575Z,100834.84
2023-01-21T20:01:38.795Z,100839.35
2023-01-21T20:04:16.741Z,100840.70
2023-01-21T20:06:50.027Z,100846.94
2023-01-21T20:09:23.862Z,100848.12
2023-01-21T20:11:56.462Z,100853.90
2023-01-21T20:14:35.039Z,100859.89
2023-01-21T20:17:12.903Z,100861.88
2023-01-21T20:19:48.277Z,100869.58
2023-01-21T20:22:22.038Z,100873.20
2023-01-21T20:24:55.564Z,100875.54
2023-01-21T20:27:31.040Z,100878.17
2023-01-21T20:30:16.747Z,100883.75
2023-01-21T20:32:50.461Z,100886.65
2023-01-21T20:35:26.693Z,100888.28
2023-01-21T20:38:05.230Z,100887.12
2023-01-21T20:40:38.397Z,100889.02
2023-01-21T20:43:15.506Z,100892.16
2023-01-21T20:45:59.468Z,100891.04
2023-01-21T20:48:35.286Z,100898.80
2023-01-21T20:51:09.489Z,100900.64
2023-01-21T20:53:43.515Z,100897.92
2023-01-21T20:56:26.460Z,100901.79
2023-01-21T20:59:03.027Z,100906.69
2023-01-21T21:01:39.842Z,100908.64
2023-01-21T21:04:17.940Z,100915.46
2023-01-21T21:06:49.944Z,100919.34
2023-01-21T21:09:23.488Z,100922.69
2023-01-21T21:12:00.357Z,100925.28
2023-01-21T21:14:32.632Z,100926.34
2023-01-21T21:17:05.018Z,100925.86
2023-01-21T21:19:36.890Z,100928.61
2023-01-21T21:22:09.617Z,100935.42
2023-01-21T21:24:41.946Z,100942.08
2023-01-21T21:27:16.487Z,100946.29
2023-01-21T21:29:48.843Z,100950.93
2023-01-21T21:32:20.596Z,100951.33
2023-01-21T21:34:57.303Z,100946.17
2023-01-21T21:37:33.725Z,100950.44
2023-01-21T21:40:06.328Z,100952.81
2023-01-21T21:42:56.541Z,100965.67
2023-01-21T21:45:29.801Z,100971.77
2023-01-21T21:48:19.149Z,100978.84
2023-01-21T21:50:58.792Z,100978.82
2023-01-21T21:53:34.008Z,100986.13
2023-01-21T21:56:10.247Z,100989.94
2023-01-21T21:58:42.835Z,100990.98
2023-01-21T22:01:17.195Z,100997.33
2023-01-21T22:03:49.290Z,101003.27
2023-01-21T22:06:23.644Z,101006.28
2023-01-21T22:08:58.440Z,101008.41
2023-01-21T22:11:31.198Z,101009.73
2023-01-21T22:14:04.642Z,101008.86
2023-01-21T22:16:38.457Z,101012.55
2023-01-21T22:19:10.018Z,101009.79
2023-01-21T22:21:41.692Z,101018.67
2023-01-21T22:24:13.632Z,101019.91
2023-01-21T22:26:45.159Z,101023.83
2023-01-21T22:29:16.607Z,101024.99
2023-01-21T22:31:48.370Z,101032.94
2023-01-21T22:34:20.126Z,101032.98
2023-01-21T22:36:52.487Z,101033.95
2023-01-21T22:39:24.093Z,101029.64
2023-01-21T22:42:00.377Z,101032.89
2023-01-21T22:44:32.367Z,101034.13
2023-01-21T22:47:04.626Z,101035.50
2023-01-21T22:49:36.899Z,101038.05
2023-01-21T22:52:09.368Z,101036.05
2023-01-21T22:54:40.908Z,101034.46
2023-01-21T22:57:13.170Z,101035.67
2023-01-21T22:59:45.325Z,101034.38
2023-01-21T23:02:17.266Z,101035.79
2023-01-21T23:04:49.041Z,101030.34
2023-01-21T23:07:20.702Z,101030.08
2023-01-21T23:09:53.619Z,101033.92
2023-01-21T23:12:25.505Z,101031.64
2023-01-21T23:14:57.992Z,101030.15
2023-01-21T23:17:29.608Z,101030.35
2023-01-21T23:20:01.848Z,101024.38
2023-01-21T23:22:34.124Z,101026.23
2023-01-21T23:25:06.559Z,101029.92
2023-01-21T23:27:38.450Z,101037.12
2023-01-21T23:30:14.726Z,101039.73
2023-01-21T23:32:46.338Z,101033.50
2023-01-21T23:35:19.653Z,101042.80
2023-01-21T23:37:51.154Z,101048.98
2023-01-21T23:40:23.393Z,101053.20
2023-01-21T23:42:55.165Z,101057.37
2023-01-21T23:45:26.911Z,101057.79
2023-01-21T23:47:58.859Z,101059.36
2023-01-21T23:50:30.530Z,101060.20
2023-01-21T23:53:02.392Z,101064.33
2023-01-21T23:55:34.150Z,101068.80
2023-01-21T23:58:05.949Z,101065.65
